MSP weather

Minneapolis-St Paul International/Wold-Chamberlain Airport
Minneapolis, Minnesota, United States

Public forecast

Using degrees Fahrenheit for public forecast. Weather courtesy of forecast.io.

Current aviation weather report (METAR) for Minneapolis-St Paul International/Wold-Chamberlain Airport

Retrieved 2019/10/17 03:53 UTC (1 hour ago):

KMSP 170353Z 00000KT 10SM BKN090 OVC130 06/02 A3007 RMK AO2 SLP186 T00610022

Aviation forecast (TAF) for Minneapolis-St Paul International/Wold-Chamberlain Airport

Retrieved 2019-10-17 00:22 UTC (5 hours ago):

TAF KMSP 162320Z 1700/1806 29006KT P6SM BKN040 BKN100 FM170200 25003KT P6SM SCT040 BKN100 FM170800 17003KT P6SM FEW100 FM171400 15011KT P6SM SKC